Time;durP1;ratioP1;P1;durP2;ratioP2;P2;SDS_P1;SDS_P2;PMS_P1;PMS_P2;Temp;Humidity;BMP_temperature;BMP_pressure;BME280_temperature;BME280_humidity;BME280_pressure;Samples;Min_cycle;Max_cycle;Signal;HPM_P1;HPM_P2
2022/06/20 00:01:54;;;;;;;6.25;2.77;;;;;;;17.25;62.28;99022.05;1645723;86;21021;-81
2022/06/20 00:04:20;;;;;;;6.62;2.45;;;;;;;17.24;63.11;99017.70;1649486;87;21322;-81
2022/06/20 00:06:48;;;;;;;5.83;2.60;;;;;;;17.25;62.70;99016.79;1655875;86;21065;-80
2022/06/20 00:09:14;;;;;;;6.03;2.72;;;;;;;17.23;60.64;99012.53;1662429;86;21000;-82
2022/06/20 00:11:45;;;;;;;5.80;2.98;;;;;;;17.16;62.61;99015.12;1674373;84;21038;-81
2022/06/20 00:14:16;;;;;;;6.97;2.80;;;;;;;17.09;63.07;99011.51;1643676;85;21030;-80
2022/06/20 00:16:44;;;;;;;4.42;2.33;;;;;;;17.04;62.37;99020.08;1669583;85;21554;-80
2022/06/20 00:19:12;;;;;;;5.42;2.62;;;;;;;17.00;65.83;99014.61;1670417;85;21613;-81
2022/06/20 00:21:40;;;;;;;5.42;2.33;;;;;;;17.01;65.41;99012.82;1668000;84;21049;-81
2022/06/20 00:24:07;;;;;;;4.80;2.58;;;;;;;16.99;63.07;99009.43;1660077;86;21078;-79
2022/06/20 00:26:36;;;;;;;6.90;2.70;;;;;;;16.94;65.02;99007.53;1662940;86;20999;-80
2022/06/20 00:29:05;;;;;;;4.00;2.55;;;;;;;16.88;65.08;99000.34;1669254;85;21541;-81
2022/06/20 00:31:33;;;;;;;8.88;2.80;;;;;;;16.83;64.41;99001.51;1670540;85;21559;-80
2022/06/20 00:34:00;;;;;;;4.12;2.40;;;;;;;16.79;64.79;98997.31;1659787;85;21034;-80
2022/06/20 00:36:27;;;;;;;6.20;2.70;;;;;;;16.75;64.68;99000.59;1671614;85;21345;-81
2022/06/20 00:38:56;;;;;;;5.03;2.60;;;;;;;16.71;64.98;98987.20;1652581;85;21018;-82
2022/06/20 00:41:27;;;;;;;5.28;2.85;;;;;;;16.67;65.42;98997.05;1673688;85;21019;-81
2022/06/20 00:43:54;;;;;;;4.28;2.47;;;;;;;16.63;64.08;98995.51;1665269;85;21091;-81
2022/06/20 00:46:51;;;;;;;4.97;2.62;;;;;;;16.55;64.34;98996.34;1662585;85;21071;-81
2022/06/20 00:49:26;;;;;;;6.87;2.58;;;;;;;16.45;65.55;98998.61;1673502;85;21065;-81
2022/06/20 00:52:05;;;;;;;4.78;2.70;;;;;;;16.47;66.28;98995.45;1672953;84;21284;-80
2022/06/20 00:55:01;;;;;;;5.72;2.65;;;;;;;16.48;65.19;98990.56;1707703;83;21492;-81
2022/06/20 00:57:43;;;;;;;5.25;3.02;;;;;;;16.44;66.39;98992.96;1709612;83;21071;-81
2022/06/20 01:00:15;;;;;;;5.17;2.47;;;;;;;16.46;66.28;98995.05;1691693;83;21587;-82
2022/06/20 01:02:47;;;;;;;5.33;2.45;;;;;;;16.45;66.49;98986.80;1708835;83;21071;-81
2022/06/20 01:05:49;;;;;;;4.35;2.70;;;;;;;16.45;65.85;98988.55;1707697;83;20985;-82
2022/06/20 01:08:46;;;;;;;4.65;2.98;;;;;;;16.44;66.68;98989.03;1655947;86;21052;-83
2022/06/20 01:11:30;;;;;;;3.87;2.30;;;;;;;16.43;67.45;98984.72;1656468;86;21088;-82
2022/06/20 01:13:57;;;;;;;4.45;2.98;;;;;;;16.36;65.37;98985.11;1666472;84;21058;-80
2022/06/20 01:16:28;;;;;;;7.40;3.75;;;;;;;16.35;67.02;98983.39;1663304;84;21039;-82
2022/06/20 01:19:00;;;;;;;4.25;2.62;;;;;;;16.29;64.88;98984.11;1679341;85;21035;-81
2022/06/20 01:21:31;;;;;;;7.37;3.10;;;;;;;16.25;66.21;98985.63;1679866;83;21117;-81
2022/06/20 01:24:23;;;;;;;6.83;2.70;;;;;;;16.19;65.12;98976.75;1684878;84;21026;-82
2022/06/20 01:27:14;;;;;;;4.97;2.75;;;;;;;16.14;65.09;98982.71;1669504;84;20983;-81
2022/06/20 01:29:41;;;;;;;5.08;2.80;;;;;;;16.10;65.33;98989.88;1684278;84;21043;-82
2022/06/20 01:32:08;;;;;;;4.50;2.77;;;;;;;16.05;65.62;98976.97;1696266;84;20996;-80
2022/06/20 01:34:35;;;;;;;4.45;3.00;;;;;;;16.04;65.92;98979.22;1678753;85;21035;-81
2022/06/20 01:39:58;;;;;;;6.42;2.75;;;;;;;15.99;65.12;98977.27;1680399;85;21066;-81
2022/06/20 01:42:26;;;;;;;5.85;2.87;;;;;;;15.94;65.91;98977.98;1681266;84;21009;-82
2022/06/20 01:45:57;;;;;;;6.80;2.90;;;;;;;15.91;65.79;98985.52;1702213;84;21038;-82
2022/06/20 01:47:39;;;;;;;8.73;2.50;;;;;;;15.87;67.65;98980.03;1686642;84;21054;-82
2022/06/20 01:50:07;;;;;;;4.78;2.83;;;;;;;15.84;66.97;98981.98;1680343;85;21035;-80
2022/06/20 01:52:39;;;;;;;7.40;2.85;;;;;;;15.81;67.80;98978.18;1706358;83;21057;-81
2022/06/20 01:55:16;;;;;;;8.25;3.17;;;;;;;15.78;65.52;98986.20;1704562;84;21046;-81
2022/06/20 01:57:46;;;;;;;4.60;2.92;;;;;;;15.72;67.66;98987.31;1708838;83;21019;-82
2022/06/20 02:00:20;;;;;;;8.08;2.77;;;;;;;15.71;66.31;98987.75;1691762;83;21008;-81
2022/06/20 02:02:52;;;;;;;6.60;2.98;;;;;;;15.67;68.15;98982.74;1694569;84;21019;-81
2022/06/20 02:05:23;;;;;;;5.12;2.72;;;;;;;15.60;67.16;98984.81;1679193;85;21027;-82
2022/06/20 02:07:50;;;;;;;4.37;2.60;;;;;;;15.55;67.38;98981.55;1683274;84;21029;-82
2022/06/20 02:10:25;;;;;;;5.70;3.22;;;;;;;15.49;67.58;98975.30;1690249;84;20995;-81
2022/06/20 02:12:53;;;;;;;7.50;2.87;;;;;;;15.48;67.40;98976.23;1695333;83;20964;-80
2022/06/20 02:15:21;;;;;;;5.10;3.15;;;;;;;15.46;67.27;98976.30;1702936;84;21016;-82
2022/06/20 02:17:51;;;;;;;6.28;3.60;;;;;;;15.43;68.24;98985.59;1695234;84;21004;-81
2022/06/20 02:20:25;;;;;;;5.97;3.15;;;;;;;15.41;68.00;98982.20;1698224;84;21019;-82
2022/06/20 02:22:53;;;;;;;5.12;3.05;;;;;;;15.40;69.12;98973.97;1692188;83;21000;-82
2022/06/20 02:25:25;;;;;;;5.83;3.12;;;;;;;15.39;68.50;98980.11;1680342;84;21011;-81
2022/06/20 02:28:05;;;;;;;5.70;3.08;;;;;;;15.41;68.86;98984.81;1700281;83;21020;-81
2022/06/20 02:30:32;;;;;;;9.48;2.92;;;;;;;15.41;68.46;98975.64;1711447;83;21555;-82
2022/06/20 02:33:07;;;;;;;6.75;3.20;;;;;;;15.41;67.90;98969.09;1719811;83;21020;-81
2022/06/20 02:35:35;;;;;;;5.78;2.72;;;;;;;15.35;70.76;98982.95;1698711;84;21000;-82
2022/06/20 02:38:02;;;;;;;7.08;3.02;;;;;;;15.28;68.02;98980.63;1707236;83;21043;-80
2022/06/20 02:40:31;;;;;;;4.37;2.58;;;;;;;15.24;68.77;98977.75;1691825;84;21138;-82
2022/06/20 02:43:30;;;;;;;6.67;3.22;;;;;;;15.18;69.54;98979.35;1703649;84;21436;-81
2022/06/20 02:45:59;;;;;;;10.18;3.42;;;;;;;15.15;68.74;98979.95;1710500;83;21035;-82
2022/06/20 02:48:29;;;;;;;8.45;3.30;;;;;;;15.14;69.00;98980.41;1712003;83;21091;-81
2022/06/20 02:51:01;;;;;;;5.75;2.98;;;;;;;15.13;68.57;98982.63;1704415;84;21060;-81
2022/06/20 02:53:52;;;;;;;10.68;3.15;;;;;;;15.12;69.13;98984.88;1688890;83;21035;-81
2022/06/20 02:56:21;;;;;;;6.08;2.90;;;;;;;15.13;69.71;98989.17;1704013;83;21594;-81
2022/06/20 02:58:56;;;;;;;6.37;2.90;;;;;;;15.16;70.12;98983.81;1726500;83;21528;-81
2022/06/20 03:01:57;;;;;;;8.55;2.70;;;;;;;15.24;70.86;98984.73;1705874;83;21070;-81
2022/06/20 03:04:24;;;;;;;6.20;2.65;;;;;;;15.30;69.87;98985.33;1665985;84;21043;-81
2022/06/20 03:06:59;;;;;;;6.20;2.67;;;;;;;15.36;71.13;98977.65;1704348;83;21067;-81
2022/06/20 03:09:33;;;;;;;8.05;2.90;;;;;;;15.45;71.33;98978.51;1696989;84;21119;-82
2022/06/20 03:12:03;;;;;;;4.65;2.90;;;;;;;15.50;70.63;98976.53;1719837;83;21051;-82
2022/06/20 03:14:36;;;;;;;6.40;3.55;;;;;;;15.58;71.06;98976.18;1723057;83;21118;-82
2022/06/20 03:17:06;;;;;;;5.00;3.00;;;;;;;15.64;70.96;98981.13;1704630;83;21494;-81
2022/06/20 03:19:38;;;;;;;5.12;3.20;;;;;;;15.67;70.93;98983.58;1721417;83;21070;-82
2022/06/20 03:22:08;;;;;;;8.53;3.10;;;;;;;15.74;70.16;98984.63;1674386;84;21003;-82
2022/06/20 03:24:37;;;;;;;9.03;3.37;;;;;;;15.77;70.16;98984.50;1692533;84;21122;-82
2022/06/20 03:27:06;;;;;;;6.05;3.60;;;;;;;15.81;70.38;98977.71;1684169;84;21512;-82
2022/06/20 03:29:38;;;;;;;8.28;3.35;;;;;;;15.85;70.01;98979.73;1662046;85;21034;-81
2022/06/20 03:32:06;;;;;;;10.75;2.80;;;;;;;15.89;69.34;98978.66;1695201;84;20988;-79
2022/06/20 03:34:33;;;;;;;8.98;3.08;;;;;;;15.90;70.27;98984.30;1691737;84;21453;-80
2022/06/20 03:37:02;;;;;;;14.35;3.60;;;;;;;15.93;70.24;98980.67;1691991;84;20990;-81
2022/06/20 03:39:29;;;;;;;6.67;3.37;;;;;;;15.95;70.31;98984.91;1692080;84;20996;-81
2022/06/20 03:41:57;;;;;;;6.05;3.05;;;;;;;15.98;70.12;98982.15;1696567;84;22295;-81
2022/06/20 03:44:31;;;;;;;9.55;3.25;;;;;;;16.00;69.43;98982.92;1701682;84;21035;-82
2022/06/20 03:47:12;;;;;;;14.93;3.33;;;;;;;16.04;69.37;98976.59;1716700;83;21490;-81
2022/06/20 03:49:47;;;;;;;7.45;2.92;;;;;;;16.07;69.94;98975.12;1714395;83;21027;-81
2022/06/20 03:52:21;;;;;;;6.92;3.25;;;;;;;16.13;70.17;98969.20;1701105;84;21578;-81
2022/06/20 03:55:02;;;;;;;12.13;3.30;;;;;;;16.16;69.53;98972.99;1679821;85;21051;-81
2022/06/20 03:57:52;;;;;;;5.40;3.00;;;;;;;16.21;69.95;98976.22;1684007;84;21027;-81
2022/06/20 04:00:35;;;;;;;6.80;3.50;;;;;;;16.24;69.61;98969.52;1671968;84;21056;-81
2022/06/20 04:03:13;;;;;;;9.15;3.10;;;;;;;16.29;70.22;98968.36;1681788;84;21066;-82
2022/06/20 04:06:06;;;;;;;8.18;3.33;;;;;;;16.33;68.44;98967.72;1692787;84;20981;-81
2022/06/20 04:11:37;;;;;;;5.87;3.30;;;;;;;16.41;69.13;98966.03;1690762;84;21007;-81
2022/06/20 04:14:12;;;;;;;4.65;3.47;;;;;;;16.48;68.91;98967.42;1686679;84;21006;-80
2022/06/20 04:18:27;;;;;;;7.12;2.90;;;;;;;16.54;67.68;98968.89;1695606;84;21008;-81
2022/06/20 04:19:36;;;;;;;4.90;3.08;;;;;;;16.57;68.58;98966.92;1688049;83;21059;-80
2022/06/20 04:22:14;;;;;;;8.70;2.80;;;;;;;16.66;68.56;98962.52;1706052;83;21610;-80
2022/06/20 04:24:56;;;;;;;5.87;3.25;;;;;;;16.76;67.88;98967.30;1710072;83;21515;-80
2022/06/20 04:27:44;;;;;;;6.78;3.25;;;;;;;16.82;67.85;98963.07;1718308;83;21003;-81
2022/06/20 04:30:16;;;;;;;8.93;4.72;;;;;;;16.86;67.78;98970.70;1707476;83;21035;-80
2022/06/20 04:32:54;;;;;;;9.85;4.97;;;;;;;16.95;67.62;98965.44;1666124;84;21034;-81
2022/06/20 04:35:34;;;;;;;9.55;5.60;;;;;;;17.04;67.70;98964.09;1709898;83;21063;-80
2022/06/20 04:38:15;;;;;;;9.13;3.83;;;;;;;17.12;67.26;98961.89;1726813;83;20991;-80
2022/06/20 04:40:52;;;;;;;5.35;3.37;;;;;;;17.19;66.06;98960.64;1712691;83;21072;-81
2022/06/20 04:43:34;;;;;;;7.47;4.12;;;;;;;17.21;66.46;98957.47;1707240;83;21028;-82
2022/06/20 04:46:18;;;;;;;7.62;4.40;;;;;;;17.26;65.82;98956.73;1685036;83;21007;-81
2022/06/20 04:48:49;;;;;;;12.80;4.45;;;;;;;17.28;66.43;98954.86;1711090;83;21031;-81
2022/06/20 04:51:24;;;;;;;5.65;3.42;;;;;;;17.37;66.07;98953.97;1695876;83;21111;-81
2022/06/20 04:53:51;;;;;;;10.72;3.30;;;;;;;17.42;65.86;98958.05;1693296;83;21126;-81
2022/06/20 04:56:28;;;;;;;8.90;3.55;;;;;;;17.46;65.53;98946.43;1675843;84;21051;-81
2022/06/20 04:59:06;;;;;;;7.20;3.67;;;;;;;17.56;65.58;98955.13;1681415;85;21031;-81
2022/06/20 05:01:36;;;;;;;9.48;3.90;;;;;;;17.66;65.26;98941.84;1656774;85;21062;-81
2022/06/20 05:04:11;;;;;;;6.10;3.37;;;;;;;17.76;65.62;98942.17;1706977;83;21294;-82
2022/06/20 05:06:40;;;;;;;9.85;3.70;;;;;;;17.81;65.24;98940.14;1680184;84;21079;-81
2022/06/20 05:09:12;;;;;;;7.42;3.30;;;;;;;17.91;64.63;98936.55;1701007;84;21040;-80
2022/06/20 05:11:47;;;;;;;8.95;3.50;;;;;;;17.97;64.71;98939.66;1695991;83;21054;-81
2022/06/20 05:14:25;;;;;;;7.03;3.87;;;;;;;18.07;64.85;98929.45;1709017;83;21055;-82
2022/06/20 05:16:54;;;;;;;5.97;3.72;;;;;;;18.16;64.28;98931.52;1697069;83;21096;-81
2022/06/20 05:19:39;;;;;;;5.05;3.20;;;;;;;18.27;64.21;98930.91;1679061;83;20995;-80
2022/06/20 05:22:14;;;;;;;5.22;2.98;;;;;;;18.35;64.00;98926.51;1676389;84;21025;-82
2022/06/20 05:24:43;;;;;;;6.58;3.40;;;;;;;18.43;63.53;98922.95;1690951;84;20993;-80
2022/06/20 05:27:21;;;;;;;7.05;3.10;;;;;;;18.51;63.29;98922.48;1699189;83;21130;-82
2022/06/20 05:29:52;;;;;;;6.95;2.98;;;;;;;18.62;63.23;98931.88;1656824;86;21059;-82
2022/06/20 05:32:36;;;;;;;7.10;3.25;;;;;;;18.70;62.51;98925.67;1684243;84;21053;-83
2022/06/20 05:35:20;;;;;;;6.12;2.87;;;;;;;18.75;62.57;98930.20;1689984;84;21106;-81
2022/06/20 05:37:58;;;;;;;10.85;4.15;;;;;;;18.86;62.69;98929.55;1716640;83;21000;-81
2022/06/20 05:40:29;;;;;;;8.68;4.45;;;;;;;19.00;62.57;98932.65;1708616;83;21054;-82
2022/06/20 05:42:56;;;;;;;12.43;4.50;;;;;;;19.13;62.16;98939.33;1680261;84;21030;-81
2022/06/20 05:45:25;;;;;;;4.30;3.10;;;;;;;19.24;61.79;98934.25;1681389;84;21114;-82
2022/06/20 05:47:55;;;;;;;5.15;3.33;;;;;;;19.32;61.18;98928.46;1701226;84;21107;-81
2022/06/20 05:50:48;;;;;;;7.15;3.08;;;;;;;19.32;61.00;98925.38;1668880;85;21098;-82
2022/06/20 05:53:35;;;;;;;7.12;3.95;;;;;;;19.37;60.87;98929.86;1711895;83;21047;-81
2022/06/20 05:56:07;;;;;;;7.42;3.30;;;;;;;19.45;61.11;98929.38;1684678;84;21153;-82
2022/06/20 05:58:36;;;;;;;11.43;3.60;;;;;;;19.61;60.71;98933.19;1704831;84;21024;-82
2022/06/20 06:01:07;;;;;;;4.72;3.25;;;;;;;19.73;61.12;98927.63;1712401;84;21004;-82
2022/06/20 06:03:42;;;;;;;6.03;3.33;;;;;;;19.84;60.67;98924.66;1685603;84;21045;-82
2022/06/20 06:06:19;;;;;;;9.60;3.42;;;;;;;19.96;60.45;98919.04;1678779;84;21117;-81
2022/06/20 06:08:51;;;;;;;9.70;3.75;;;;;;;20.06;59.89;98917.47;1696574;84;20971;-80
2022/06/20 06:11:25;;;;;;;7.45;3.80;;;;;;;20.10;59.65;98915.96;1697205;84;21015;-80
2022/06/20 06:14:14;;;;;;;9.15;3.67;;;;;;;20.19;59.72;98919.28;1698959;84;21000;-80
2022/06/20 06:16:50;;;;;;;5.47;3.12;;;;;;;20.31;59.56;98917.61;1704932;83;21404;-80
2022/06/20 06:19:44;;;;;;;5.85;3.40;;;;;;;20.42;59.42;98916.41;1681786;85;21023;-80
2022/06/20 06:22:20;;;;;;;;;;;;;;;20.54;59.29;98925.29;1679196;84;21607;-79
2022/06/20 06:24:51;;;;;;;7.33;3.52;;;;;;;20.67;58.89;98916.89;1700959;84;20777;-79
2022/06/20 06:27:23;;;;;;;7.15;3.80;;;;;;;20.75;58.91;98913.27;1678401;84;21090;-82
2022/06/20 06:29:55;;;;;;;8.13;3.30;;;;;;;20.88;58.76;98915.88;1680869;84;21101;-79
2022/06/20 06:32:27;;;;;;;8.98;3.47;;;;;;;20.99;58.75;98916.43;1676592;84;21002;-82
2022/06/20 06:35:14;;;;;;;6.65;3.50;;;;;;;21.13;58.56;98919.41;1677617;85;21676;-80
2022/06/20 06:37:53;;;;;;;8.58;4.30;;;;;;;21.23;58.04;98915.19;1701734;83;21022;-83
2022/06/20 06:40:32;;;;;;;12.03;4.65;;;;;;;21.31;57.71;98907.99;1683912;83;21654;-83
2022/06/20 06:43:00;;;;;;;23.57;12.80;;;;;;;21.33;57.62;98898.15;1653838;84;21052;-82
2022/06/20 06:45:31;;;;;;;22.15;10.60;;;;;;;21.41;57.77;98903.75;1686279;84;20994;-82
2022/06/20 06:48:17;;;;;;;13.53;5.00;;;;;;;21.52;57.68;98903.83;1668816;83;21049;-83
2022/06/20 06:50:51;;;;;;;9.40;4.12;;;;;;;21.62;57.35;98895.57;1683558;84;21121;-84
2022/06/20 06:53:42;;;;;;;10.35;3.67;;;;;;;21.72;57.16;98897.06;1692968;84;21008;-83
2022/06/20 06:56:35;;;;;;;10.68;4.12;;;;;;;21.82;56.96;98899.38;1697107;84;21041;-81
2022/06/20 06:59:08;;;;;;;;;;;;;;;21.93;56.70;98893.30;1693623;84;21488;-80
2022/06/20 07:01:51;;;;;;;10.03;4.10;;;;;;;22.01;56.41;98891.41;1704400;84;20152;-80
2022/06/20 07:04:21;;;;;;;;;;;;;;;22.04;56.12;98884.08;1697022;83;21029;-80
2022/06/20 07:07:10;;;;;;;6.87;3.67;;;;;;;22.07;55.88;98888.78;1705422;84;20135;-80
2022/06/20 07:09:48;;;;;;;6.28;3.65;;;;;;;22.11;55.84;98884.94;1679193;84;21035;-80
2022/06/20 07:12:52;;;;;;;9.00;3.98;;;;;;;22.15;55.86;98887.22;1711598;83;21043;-80
2022/06/20 07:15:23;;;;;;;7.53;3.52;;;;;;;22.26;55.68;98883.77;1684115;84;21359;-81
2022/06/20 07:18:10;;;;;;;8.85;3.22;;;;;;;22.37;55.30;98884.29;1683421;84;20998;-81
2022/06/20 07:20:41;;;;;;;7.37;3.58;;;;;;;22.36;55.45;98883.45;1705654;83;21063;-86
2022/06/20 07:23:15;;;;;;;6.33;3.02;;;;;;;22.46;55.41;98877.42;1654088;85;21221;-87
2022/06/20 07:25:47;;;;;;;8.50;3.47;;;;;;;22.59;55.39;98879.48;1696832;84;21017;-86
2022/06/20 07:28:34;;;;;;;7.00;3.50;;;;;;;22.71;55.02;98877.20;1712266;83;21024;-84
2022/06/20 07:31:17;;;;;;;7.00;3.30;;;;;;;22.80;54.83;98881.78;1607170;84;21263;-86
2022/06/20 07:33:56;;;;;;;8.75;3.20;;;;;;;22.90;54.52;98878.38;1686041;84;21125;-83
2022/06/20 07:36:32;;;;;;;8.20;3.75;;;;;;;22.95;54.52;98878.38;1704412;83;20976;-86
2022/06/20 07:39:21;;;;;;;6.33;3.60;;;;;;;23.07;54.72;98873.10;1696274;84;21055;-87
2022/06/20 07:41:51;;;;;;;10.88;3.70;;;;;;;23.22;54.73;98878.50;1682850;80;21018;31
2022/06/20 08:06:45;;;;;;;8.18;4.87;;;;;;;24.24;53.22;98859.01;1737235;79;21149;31
2022/06/20 08:18:30;;;;;;;9.65;3.12;;;;;;;24.79;51.69;98852.09;1749782;78;21055;-86
2022/06/20 09:02:04;;;;;;;4.12;2.60;;;;;;;26.47;44.44;98826.17;1788539;78;21122;-89
2022/06/20 09:26:48;;;;;;;3.87;2.50;;;;;;;27.74;43.40;98793.69;1762479;77;21135;31
2022/06/20 12:01:05;;;;;;;3.87;2.10;;;;;;;31.93;29.94;98603.06;1757671;77;21171;-93
2022/06/20 12:33:07;;;;;;;5.05;2.00;;;;;;;35.03;28.00;98565.03;1728050;80;21134;-94
2022/06/20 12:36:17;;;;;;;3.37;2.30;;;;;;;35.64;28.11;98563.89;1713498;83;21064;-95
2022/06/20 12:42:10;;;;;;;5.50;2.20;;;;;;;36.63;26.99;98553.11;1759921;78;21072;-95
2022/06/20 12:44:54;;;;;;;4.60;2.10;;;;;;;37.13;26.26;98556.89;1783357;79;21000;-96
2022/06/20 12:47:52;;;;;;;4.55;2.37;;;;;;;37.73;25.37;98549.47;1748438;78;21072;-91
2022/06/20 12:50:36;;;;;;;3.58;1.85;;;;;;;38.02;24.70;98542.38;1764627;78;21000;-96
2022/06/20 12:53:27;;;;;;;4.33;2.00;;;;;;;38.40;24.40;98539.88;1753139;80;21126;-95
2022/06/20 12:56:16;;;;;;;3.47;1.90;;;;;;;39.04;23.47;98536.58;1750400;78;21064;-95
2022/06/20 12:59:27;;;;;;;8.25;4.87;;;;;;;39.71;23.46;98539.67;1763844;80;21481;-95
2022/06/20 13:02:16;;;;;;;5.67;2.72;;;;;;;40.27;22.48;98539.96;1738756;82;21528;-94
2022/06/20 13:04:57;;;;;;;6.30;2.30;;;;;;;40.99;21.76;98530.79;1744942;80;20971;-93
2022/06/20 13:07:47;;;;;;;5.05;2.52;;;;;;;40.97;18.67;98530.21;1720997;82;21030;-95
2022/06/20 13:11:00;;;;;;;5.80;1.90;;;;;;;41.13;18.88;98533.47;1756087;80;21020;-94
2022/06/20 13:14:13;;;;;;;3.98;2.20;;;;;;;41.07;19.06;98532.56;1744793;80;21040;-96
2022/06/20 13:17:06;;;;;;;8.10;2.15;;;;;;;41.31;19.64;98522.28;1735427;82;21041;-96
2022/06/20 13:20:07;;;;;;;6.08;2.20;;;;;;;40.64;19.06;98520.44;1734101;82;21016;-93
2022/06/20 13:22:45;;;;;;;3.65;2.10;;;;;;;40.61;20.13;98518.73;1735796;81;21084;-96
2022/06/20 13:25:32;;;;;;;5.03;2.00;;;;;;;40.25;19.88;98514.03;1751044;81;21016;-94
2022/06/20 13:28:27;;;;;;;5.83;1.80;;;;;;;40.64;20.42;98496.46;1743256;81;21005;-96
2022/06/20 13:31:28;;;;;;;3.08;1.98;;;;;;;41.19;19.99;98503.86;1710150;83;21005;-93
2022/06/20 13:34:36;;;;;;;7.25;3.42;;;;;;;41.27;19.41;98506.15;1727088;82;21036;-94
2022/06/20 13:37:29;;;;;;;4.92;2.00;;;;;;;40.73;19.83;98505.88;1755207;80;20992;-96
2022/06/20 13:40:13;;;;;;;4.30;2.00;;;;;;;40.66;19.91;98496.49;1730054;79;21137;-93
2022/06/20 13:42:54;;;;;;;3.62;1.90;;;;;;;40.78;19.74;98498.34;1776878;80;21050;-93
2022/06/20 13:45:33;;;;;;;4.37;2.10;;;;;;;40.67;19.60;98482.33;1777030;80;21495;-93
2022/06/20 13:48:23;;;;;;;4.72;2.10;;;;;;;41.26;19.91;98487.30;1780418;80;21470;-94
2022/06/20 13:51:15;;;;;;;6.47;1.92;;;;;;;41.51;18.65;98484.89;1779866;80;21007;-96
2022/06/20 13:54:06;;;;;;;5.95;1.80;;;;;;;41.24;18.45;98486.73;1777332;80;21546;-94
2022/06/20 13:56:36;;;;;;;;;;;;;;;40.93;19.42;98483.58;1722275;83;21018;-96
2022/06/20 13:59:23;;;;;;;4.97;1.90;;;;;;;41.32;19.37;98474.02;1704648;83;20930;-96
2022/06/20 14:02:01;;;;;;;4.25;2.10;;;;;;;41.28;18.55;98479.69;1777000;80;21023;-95
2022/06/20 14:04:34;;;;;;;5.97;1.90;;;;;;;41.29;18.65;98480.81;1780138;80;21030;-90
2022/06/20 14:07:06;;;;;;;3.75;1.80;;;;;;;41.29;17.83;98471.27;1788110;80;21017;-95
2022/06/20 14:09:43;;;;;;;4.03;1.82;;;;;;;41.25;18.43;98479.67;1783885;80;21103;-92
2022/06/20 14:12:35;;;;;;;4.55;1.95;;;;;;;40.95;18.40;98475.43;1787260;80;21505;-96
2022/06/20 14:15:19;;;;;;;3.95;1.98;;;;;;;41.29;18.38;98476.72;1764033;80;21526;-96
2022/06/20 14:18:00;;;;;;;4.50;2.00;;;;;;;40.93;18.77;98470.77;1743183;81;21046;-96
2022/06/20 14:20:31;;;;;;;3.62;2.00;;;;;;;41.01;18.15;98472.76;1738827;79;21060;-96
2022/06/20 14:23:01;;;;;;;4.72;2.08;;;;;;;40.44;18.05;98458.84;1699021;80;21543;-96
2022/06/20 14:25:54;;;;;;;3.55;1.80;;;;;;;40.43;18.57;98456.66;1704784;78;21087;-95
2022/06/20 14:28:43;;;;;;;5.90;2.10;;;;;;;40.79;17.81;98465.40;1732132;80;21060;-93
2022/06/20 14:31:40;;;;;;;4.75;1.92;;;;;;;40.54;18.79;98453.55;1749183;81;21060;-96
2022/06/20 14:34:15;;;;;;;4.17;2.00;;;;;;;40.64;19.04;98446.88;1748504;81;21368;-96
2022/06/20 14:36:56;;;;;;;6.22;2.20;;;;;;;41.09;18.75;98436.36;1747565;81;21391;-93
2022/06/20 14:39:48;;;;;;;6.53;2.00;;;;;;;40.91;17.63;98438.86;1749902;81;21027;-92
2022/06/20 14:42:22;;;;;;;6.60;2.08;;;;;;;41.02;17.94;98438.98;1750262;81;20988;-96
2022/06/20 14:44:57;;;;;;;3.65;1.70;;;;;;;41.23;18.44;98440.11;1749810;81;21185;-96
2022/06/20 14:48:04;;;;;;;3.37;1.82;;;;;;;41.33;18.18;98438.86;1749668;82;21038;-91
2022/06/20 14:50:45;;;;;;;4.53;1.90;;;;;;;40.73;18.58;98433.67;1749641;82;21026;-95
2022/06/20 14:53:29;;;;;;;4.00;1.80;;;;;;;40.51;18.56;98433.59;1745413;82;21086;-96
2022/06/20 14:56:11;;;;;;;4.75;2.05;;;;;;;40.49;18.13;98431.66;1755696;80;21058;-96
2022/06/20 14:59:01;;;;;;;3.83;2.30;;;;;;;40.36;18.98;98421.95;1777270;80;21164;-96
2022/06/20 15:02:03;;;;;;;5.20;2.12;;;;;;;40.33;18.60;98424.64;1783737;80;21018;-96
2022/06/20 15:04:35;;;;;;;3.22;1.55;;;;;;;40.35;18.77;98436.63;1786716;80;20973;-96
2022/06/20 15:07:26;;;;;;;5.67;1.90;;;;;;;39.84;18.82;98439.81;1710669;82;21038;-96
2022/06/20 15:09:58;;;;;;;5.17;1.90;;;;;;;39.77;18.88;98444.88;1703437;84;21036;-96
2022/06/20 15:12:33;;;;;;;4.40;1.98;;;;;;;39.99;18.69;98439.27;1694926;84;20973;-95
2022/06/20 15:15:29;;;;;;;4.28;2.10;;;;;;;39.26;19.58;98432.97;1721024;83;21012;-96
2022/06/20 15:18:44;;;;;;;5.78;2.25;;;;;;;38.76;20.11;98430.80;1739215;82;20984;-96
2022/06/20 15:32:07;;;;;;;3.95;2.00;;;;;;;37.33;21.62;98417.91;1731661;82;20988;-94
2022/06/20 15:34:57;;;;;;;4.17;2.25;;;;;;;37.17;21.87;98410.41;1750127;81;21063;-95
2022/06/20 15:38:05;;;;;;;3.33;2.12;;;;;;;37.06;22.11;98411.95;1696568;83;21043;-94
2022/06/20 17:22:40;;;;;;;8.53;3.08;;;;;;;32.89;30.01;98375.75;1752103;78;21127;-93
2022/06/20 17:25:49;;;;;;;6.00;2.95;;;;;;;32.85;29.56;98379.87;1738763;77;21110;-93
2022/06/20 17:45:06;;;;;;;6.15;2.72;;;;;;;32.10;30.92;98376.84;1751469;78;21173;-94
2022/06/20 17:51:07;;;;;;;6.20;3.35;;;;;;;31.68;31.53;98375.00;1818009;77;21047;-92
2022/06/20 19:32:47;;;;;;;11.30;4.58;;;;;;;25.69;46.43;98355.16;1833027;77;21022;-90
2022/06/20 20:22:25;;;;;;;9.95;5.05;;;;;;;24.28;52.02;98384.97;1773181;80;21063;-90
2022/06/20 20:25:35;;;;;;;13.22;4.50;;;;;;;24.18;50.78;98385.48;1768078;80;21021;-90
2022/06/20 20:28:32;;;;;;;8.00;4.50;;;;;;;24.12;51.50;98382.07;1794843;79;20979;-90
2022/06/20 20:35:57;;;;;;;9.40;5.28;;;;;;;23.99;52.27;98380.55;1827070;79;20992;-90
2022/06/20 20:39:17;;;;;;;11.15;4.20;;;;;;;23.89;53.13;98377.04;1794140;79;21056;-89
2022/06/20 20:42:34;;;;;;;9.05;4.35;;;;;;;23.80;51.44;98368.61;1809202;79;20978;-89
2022/06/20 20:45:45;;;;;;;9.50;4.22;;;;;;;23.73;51.14;98373.59;1768631;78;21152;-87
2022/06/20 20:48:28;;;;;;;7.10;3.72;;;;;;;23.69;52.50;98375.34;1704081;82;21069;-89
2022/06/20 21:03:33;;;;;;;7.22;4.25;;;;;;;23.25;54.80;98387.64;1777994;78;21187;-89
2022/06/20 21:06:11;;;;;;;8.58;3.90;;;;;;;23.17;53.21;98389.64;1733048;83;21080;-89
2022/06/20 21:15:37;;;;;;;9.25;4.03;;;;;;;22.94;54.96;98381.05;1732086;79;21059;-89
2022/06/20 21:18:24;;;;;;;7.28;4.05;;;;;;;22.84;56.07;98386.31;1687995;84;21036;-90
2022/06/20 21:21:09;;;;;;;9.85;4.50;;;;;;;22.76;55.19;98387.47;1754487;82;21140;-89
2022/06/20 21:23:58;;;;;;;10.13;4.42;;;;;;;22.69;56.48;98387.63;1728697;82;21074;-89
2022/06/20 21:33:09;;;;;;;10.55;4.37;;;;;;;22.50;55.71;98391.03;1789467;77;21084;-89
2022/06/20 21:35:48;;;;;;;6.47;3.72;;;;;;;22.38;55.78;98398.22;1757716;81;20993;-88
2022/06/20 21:38:32;;;;;;;9.18;4.30;;;;;;;22.31;57.13;98393.08;1753192;80;21077;-88
2022/06/20 21:41:45;;;;;;;5.60;3.70;;;;;;;22.27;57.45;98387.69;1740015;79;21100;-89
2022/06/20 21:44:20;;;;;;;6.10;3.77;;;;;;;22.24;56.17;98385.28;1734652;82;21001;-89
2022/06/20 21:46:59;;;;;;;6.45;4.17;;;;;;;22.15;56.81;98381.58;1679885;84;20996;-89
2022/06/20 21:49:29;;;;;;;5.95;3.90;;;;;;;22.08;57.11;98366.34;1683381;85;21095;-88
2022/06/20 22:37:10;;;;;;;9.50;4.67;;;;;;;21.15;61.23;98388.41;1733595;78;21143;-90
2022/06/20 22:43:02;;;;;;;8.98;4.08;;;;;;;21.03;63.11;98388.08;1695171;80;21068;-90
2022/06/20 22:48:55;;;;;;;7.25;4.33;;;;;;;20.94;61.60;98396.72;1799546;77;21139;-89
2022/06/20 23:11:03;;;;;;;5.92;4.03;;;;;;;20.52;62.23;98399.08;1789883;77;21134;-88
2022/06/20 23:19:38;;;;;;;8.83;3.87;;;;;;;20.39;63.56;98393.88;1771918;77;21126;-85
2022/06/20 23:53:42;;;;;;;6.95;4.60;;;;;;;20.19;64.04;98379.57;1687092;81;21054;-88
